Time;durP1;ratioP1;P1;durP2;ratioP2;P2;SDS_P1;SDS_P2;PMS_P1;PMS_P2;Temp;Humidity;BMP_temperature;BMP_pressure;BME280_temperature;BME280_humidity;BME280_pressure;Samples;Min_cycle;Max_cycle;Signal;HPM_P1;HPM_P2
2022/05/24 00:01:37;;;;;;;16.23;14.03;;;;;;;16.22;100.00;97806.81;5053389;28;20672;-84
2022/05/24 00:04:05;;;;;;;15.87;14.17;;;;;;;16.34;100.00;97801.13;5051677;28;20201;-84
2022/05/24 00:06:35;;;;;;;14.70;12.80;;;;;;;16.35;100.00;97806.31;5043050;28;20209;-85
2022/05/24 00:09:03;;;;;;;14.83;12.80;;;;;;;16.40;100.00;97803.94;5048363;28;20198;-84
2022/05/24 00:11:33;;;;;;;14.80;13.20;;;;;;;16.39;100.00;97801.44;5055795;28;20225;-84
2022/05/24 00:14:01;;;;;;;17.87;12.87;;;;;;;16.36;100.00;97807.97;5052833;28;20242;-84
2022/05/24 00:16:29;;;;;;;17.87;12.63;;;;;;;16.42;100.00;97809.16;5049947;28;20196;-84
2022/05/24 00:18:58;;;;;;;14.57;12.90;;;;;;;16.43;100.00;97816.16;5055662;28;20217;-84
2022/05/24 00:21:28;;;;;;;15.40;12.93;;;;;;;16.55;100.00;97818.31;5051086;28;20247;-84
2022/05/24 00:23:59;;;;;;;14.97;12.40;;;;;;;16.50;100.00;97817.13;5051355;28;20239;-83
2022/05/24 00:26:32;;;;;;;14.47;12.67;;;;;;;16.61;100.00;97811.47;5051217;28;20201;-84
2022/05/24 00:29:00;;;;;;;13.60;12.20;;;;;;;16.69;100.00;97806.13;5052555;28;20671;-84
2022/05/24 00:31:28;;;;;;;15.87;12.33;;;;;;;16.58;100.00;97803.75;5052165;28;20204;-84
2022/05/24 00:33:57;;;;;;;15.60;12.60;;;;;;;16.62;100.00;97793.59;5048601;28;20193;-84
2022/05/24 00:36:26;;;;;;;15.37;12.60;;;;;;;16.63;100.00;97796.09;5046365;28;20288;-84
2022/05/24 00:38:54;;;;;;;16.80;13.00;;;;;;;16.59;100.00;97790.22;5055499;28;20189;-85
2022/05/24 00:41:29;;;;;;;14.37;12.17;;;;;;;16.47;100.00;97798.78;5050870;28;20197;-84
2022/05/24 00:44:03;;;;;;;16.67;13.40;;;;;;;16.27;100.00;97803.63;5053395;28;20193;-84
2022/05/24 00:46:42;;;;;;;14.90;12.73;;;;;;;16.31;100.00;97816.50;5052679;28;20189;-84
2022/05/24 00:49:15;;;;;;;15.33;12.50;;;;;;;15.99;100.00;97813.81;5049046;28;20200;-84
2022/05/24 00:51:49;;;;;;;17.30;13.67;;;;;;;15.92;100.00;97818.13;5050902;28;20216;-84
2022/05/24 00:54:18;;;;;;;17.40;14.50;;;;;;;16.02;100.00;97830.34;5055934;28;20276;-84
2022/05/24 00:56:56;;;;;;;17.47;14.37;;;;;;;15.71;100.00;97829.28;5053270;28;20248;-83
2022/05/24 00:59:33;;;;;;;18.50;13.67;;;;;;;15.71;100.00;97838.09;5058210;28;20192;-84
2022/05/24 01:02:01;;;;;;;14.20;12.57;;;;;;;15.80;100.00;97822.13;5054591;28;20258;-84
2022/05/24 01:04:32;;;;;;;15.93;13.20;;;;;;;15.98;100.00;97830.81;5051892;28;20195;-84
2022/05/24 01:07:00;;;;;;;12.80;11.23;;;;;;;15.88;100.00;97817.63;5050947;28;20200;-84
2022/05/24 01:09:41;;;;;;;13.13;11.43;;;;;;;15.89;100.00;97823.81;5048632;28;20682;-84
2022/05/24 01:12:16;;;;;;;12.77;11.10;;;;;;;16.03;100.00;97818.66;5055887;28;20227;-84
2022/05/24 01:14:45;;;;;;;13.10;11.70;;;;;;;16.33;100.00;97821.69;5051245;28;20212;-84
2022/05/24 01:17:14;;;;;;;12.77;10.80;;;;;;;16.31;100.00;97826.38;5064701;28;20251;-84
2022/05/24 01:19:46;;;;;;;13.40;12.10;;;;;;;16.38;100.00;97819.31;5063844;28;20223;-84
2022/05/24 01:22:42;;;;;;;14.20;12.13;;;;;;;16.25;100.00;97825.19;5044831;28;20208;-84
2022/05/24 01:25:25;;;;;;;13.37;11.37;;;;;;;16.23;100.00;97821.84;5054661;28;20193;-84
2022/05/24 01:27:54;;;;;;;14.93;12.70;;;;;;;16.19;100.00;97812.47;5054194;28;20209;-85
2022/05/24 01:30:23;;;;;;;14.57;13.07;;;;;;;16.10;100.00;97821.47;5045202;28;20216;-84
2022/05/24 01:38:24;;;;;;;13.13;11.80;;;;;;;16.31;100.00;97831.72;5054239;28;20211;-84
2022/05/24 01:40:55;;;;;;;12.73;11.43;;;;;;;15.50;100.00;97832.34;5049205;28;20195;-84
2022/05/24 01:43:27;;;;;;;13.30;11.83;;;;;;;15.08;100.00;97833.19;5048440;28;20201;-85
2022/05/24 01:46:00;;;;;;;15.03;12.13;;;;;;;15.11;100.00;97843.53;5052173;28;20204;-84
2022/05/24 01:48:33;;;;;;;15.33;12.77;;;;;;;14.86;100.00;97850.56;5050757;28;20189;-84
2022/05/24 01:51:04;;;;;;;15.33;13.73;;;;;;;14.89;100.00;97854.75;5047577;28;20280;-83
2022/05/24 01:53:37;;;;;;;14.17;12.03;;;;;;;14.90;100.00;97853.75;5048748;28;20221;-83
2022/05/24 01:56:30;;;;;;;15.27;12.13;;;;;;;15.13;100.00;97846.88;5053409;28;20242;-84
2022/05/24 01:59:03;;;;;;;14.83;12.43;;;;;;;15.17;100.00;97847.41;5051178;28;20201;-84
2022/05/24 02:01:40;;;;;;;15.80;12.77;;;;;;;15.11;100.00;97848.88;5055053;28;20287;-84
2022/05/24 02:04:08;;;;;;;14.67;11.90;;;;;;;15.17;100.00;97844.75;5051338;28;20193;-83
2022/05/24 02:06:37;;;;;;;13.93;11.23;;;;;;;15.35;100.00;97845.50;5011500;28;20728;-83
2022/05/24 02:09:08;;;;;;;11.57;10.37;;;;;;;15.37;100.00;97837.31;5053506;28;20201;-84
2022/05/24 02:11:37;;;;;;;11.50;10.30;;;;;;;15.42;100.00;97834.97;5049123;28;20185;-84
2022/05/24 02:14:14;;;;;;;12.17;10.87;;;;;;;15.69;100.00;97828.59;5044908;28;20281;-84
2022/05/24 02:16:50;;;;;;;12.90;10.10;;;;;;;15.82;100.00;97817.44;4972872;28;20203;-84
2022/05/24 02:19:21;;;;;;;11.07;9.73;;;;;;;15.93;100.00;97825.16;4972864;28;20195;-84
2022/05/24 02:21:58;;;;;;;12.77;11.40;;;;;;;15.93;100.00;97823.31;4969308;28;20275;-84
2022/05/24 02:24:27;;;;;;;13.43;12.03;;;;;;;15.88;100.00;97819.47;4970762;28;20195;-83
2022/05/24 02:26:56;;;;;;;13.73;11.83;;;;;;;15.92;100.00;97812.78;4969486;28;20199;-84
2022/05/24 02:29:26;;;;;;;13.47;11.73;;;;;;;15.95;100.00;97799.97;4968051;28;20239;-84
2022/05/24 02:31:54;;;;;;;13.33;11.07;;;;;;;16.05;100.00;97794.47;4971168;28;20192;-84
2022/05/24 02:34:22;;;;;;;13.27;11.30;;;;;;;16.04;100.00;97795.47;4993177;28;20225;-84
2022/05/24 02:36:51;;;;;;;11.20;9.47;;;;;;;16.12;100.00;97794.63;5047982;28;20201;-84
2022/05/24 02:39:19;;;;;;;11.30;10.20;;;;;;;15.99;100.00;97797.78;5049847;28;20205;-84
2022/05/24 02:41:47;;;;;;;11.30;9.83;;;;;;;15.79;100.00;97793.75;5044390;28;20197;-84
2022/05/24 02:44:17;;;;;;;10.63;9.53;;;;;;;15.66;100.00;97796.91;5046195;28;20676;-84
2022/05/24 02:46:48;;;;;;;11.30;10.03;;;;;;;15.16;100.00;97806.56;5053197;28;20201;-84
2022/05/24 02:49:17;;;;;;;10.87;9.77;;;;;;;15.36;100.00;97814.31;5048684;28;20249;-84
2022/05/24 02:51:45;;;;;;;11.03;9.87;;;;;;;15.15;100.00;97820.03;5043486;28;20201;-85
2022/05/24 02:54:13;;;;;;;11.53;9.97;;;;;;;15.34;100.00;97813.59;5051073;28;20240;-83
2022/05/24 02:56:43;;;;;;;12.47;10.57;;;;;;;15.42;100.00;97801.13;5048850;28;20244;-83
2022/05/24 02:59:12;;;;;;;12.67;9.77;;;;;;;15.60;100.00;97797.53;5044742;28;20197;-84
2022/05/24 03:01:40;;;;;;;10.67;9.67;;;;;;;15.60;100.00;97787.72;5051162;28;20272;-83
2022/05/24 03:04:11;;;;;;;13.37;8.43;;;;;;;15.39;100.00;97806.81;5050054;28;20205;-84
2022/05/24 03:09:36;;;;;;;8.97;7.83;;;;;;;15.35;100.00;97808.13;5057127;28;20257;-84
2022/05/24 03:14:55;;;;;;;10.07;7.93;;;;;;;15.38;100.00;97782.97;5057226;28;20672;-84
2022/05/24 03:17:24;;;;;;;12.23;7.90;;;;;;;15.39;100.00;97787.28;5046293;28;20228;-84
2022/05/24 03:19:55;;;;;;;9.53;7.20;;;;;;;15.50;100.00;97789.66;5054073;28;20190;-83
2022/05/24 03:22:23;;;;;;;7.70;6.80;;;;;;;15.52;100.00;97800.16;5055847;28;20215;-83
2022/05/24 03:24:51;;;;;;;8.00;7.20;;;;;;;15.14;100.00;97803.19;5049447;28;20201;-83
2022/05/24 03:27:20;;;;;;;8.67;6.97;;;;;;;15.11;100.00;97802.69;5052508;28;20216;-83
2022/05/24 03:29:49;;;;;;;9.47;7.43;;;;;;;14.78;100.00;97809.69;5051687;28;20229;-83
2022/05/24 03:32:19;;;;;;;7.90;7.10;;;;;;;14.95;100.00;97819.44;5050627;28;20197;-83
2022/05/24 03:34:48;;;;;;;7.57;6.87;;;;;;;14.91;100.00;97818.09;5053554;28;20212;-84
2022/05/24 03:37:19;;;;;;;8.67;7.40;;;;;;;14.69;100.00;97815.97;5052265;28;20192;-84
2022/05/24 03:39:48;;;;;;;8.57;7.30;;;;;;;14.75;100.00;97818.81;5054131;28;20293;-85
2022/05/24 03:42:21;;;;;;;10.07;7.00;;;;;;;14.72;100.00;97810.31;5049545;28;20204;-83
2022/05/24 03:44:49;;;;;;;6.47;5.83;;;;;;;14.68;100.00;97814.31;5047185;28;20373;-84
2022/05/24 03:47:18;;;;;;;6.80;5.57;;;;;;;14.89;100.00;97812.09;5049462;28;20197;-83
2022/05/24 03:49:46;;;;;;;6.00;5.33;;;;;;;14.88;100.00;97810.44;4991765;28;20195;-84
2022/05/24 03:52:14;;;;;;;5.50;5.00;;;;;;;14.80;100.00;97816.53;4910337;29;20209;-83
2022/05/24 03:54:45;;;;;;;6.67;5.00;;;;;;;14.89;100.00;97810.25;4913938;29;20229;-84
2022/05/24 04:00:01;;;;;;;3.87;3.30;;;;;;;14.92;100.00;97806.44;4917484;29;20193;-84
2022/05/24 04:02:29;;;;;;;5.23;3.33;;;;;;;14.97;100.00;97803.31;4915346;29;20684;-84
2022/05/24 04:04:57;;;;;;;8.00;2.97;;;;;;;15.10;100.00;97803.69;4911689;29;20194;-84
2022/05/24 04:07:25;;;;;;;4.80;2.90;;;;;;;15.01;100.00;97804.66;4929710;28;20204;-84
2022/05/24 04:09:56;;;;;;;4.23;2.90;;;;;;;14.92;100.00;97802.94;4993082;28;20433;-84
2022/05/24 04:12:24;;;;;;;3.20;2.90;;;;;;;15.07;100.00;97796.03;5047115;28;20204;-83
2022/05/24 04:14:53;;;;;;;3.53;3.17;;;;;;;15.21;100.00;97784.72;5051069;28;20219;-84
2022/05/24 04:17:21;;;;;;;6.13;3.20;;;;;;;15.23;100.00;97785.41;5047386;28;20697;-84
2022/05/24 04:19:49;;;;;;;5.77;3.17;;;;;;;15.27;100.00;97785.94;5056325;28;20242;-84
2022/05/24 04:22:17;;;;;;;3.67;2.93;;;;;;;15.29;100.00;97792.75;5049955;28;20686;-83
2022/05/24 04:24:46;;;;;;;6.33;3.10;;;;;;;15.22;100.00;97794.41;5053466;28;20288;-84
2022/05/24 04:27:17;;;;;;;3.20;2.90;;;;;;;15.19;100.00;97797.41;5030861;28;20201;-84
2022/05/24 04:29:46;;;;;;;7.77;3.17;;;;;;;15.03;100.00;97807.97;5016275;28;20231;-84
2022/05/24 04:32:14;;;;;;;6.07;3.93;;;;;;;14.95;100.00;97810.59;5051164;28;20197;-83
2022/05/24 04:34:43;;;;;;;4.03;3.63;;;;;;;15.02;100.00;97819.66;5048093;28;20392;-84
2022/05/24 04:37:12;;;;;;;6.00;4.63;;;;;;;15.30;100.00;97825.63;5047575;28;20200;-84
2022/05/24 04:39:40;;;;;;;7.63;5.33;;;;;;;15.26;100.00;97827.78;5051586;28;20276;-84
2022/05/24 04:42:22;;;;;;;6.60;5.07;;;;;;;15.26;100.00;97829.59;5051263;28;20203;-83
2022/05/24 04:44:54;;;;;;;7.80;5.20;;;;;;;15.25;100.00;97835.91;5050452;28;20205;-82
2022/05/24 04:47:23;;;;;;;8.47;5.53;;;;;;;15.31;100.00;97837.94;5048951;28;20648;-83
2022/05/24 04:49:55;;;;;;;6.57;5.40;;;;;;;15.32;100.00;97834.28;5055166;28;20280;-83
2022/05/24 04:52:26;;;;;;;7.33;5.53;;;;;;;15.39;100.00;97844.16;5050412;28;20201;-83
2022/05/24 04:54:55;;;;;;;6.93;6.30;;;;;;;15.35;100.00;97836.66;5052461;28;20238;-83
2022/05/24 04:57:24;;;;;;;8.83;6.80;;;;;;;15.31;100.00;97830.78;5054688;28;20413;-83
2022/05/24 04:59:54;;;;;;;8.50;7.37;;;;;;;15.30;100.00;97852.28;5051420;28;20212;-83
2022/05/24 05:02:23;;;;;;;9.10;6.90;;;;;;;15.26;100.00;97846.44;5050438;28;20208;-83
2022/05/24 05:04:51;;;;;;;9.27;7.43;;;;;;;15.31;100.00;97854.78;5051589;28;20201;-83
2022/05/24 05:07:22;;;;;;;15.07;7.87;;;;;;;15.31;100.00;97849.44;5050410;28;20235;-82
2022/05/24 05:09:52;;;;;;;10.27;8.37;;;;;;;15.34;100.00;97849.13;5055349;28;20205;-83
2022/05/24 05:12:25;;;;;;;9.27;8.17;;;;;;;15.32;100.00;97850.28;5049289;28;20185;-83
2022/05/24 05:14:54;;;;;;;9.00;7.60;;;;;;;15.43;100.00;97842.00;5021388;28;20212;-83
2022/05/24 05:17:23;;;;;;;10.50;8.00;;;;;;;15.35;100.00;97847.31;5048184;28;20201;-82
2022/05/24 05:19:51;;;;;;;9.73;7.80;;;;;;;15.40;100.00;97840.50;5045724;28;20193;-83
2022/05/24 05:22:22;;;;;;;9.27;7.63;;;;;;;15.54;100.00;97852.41;5047643;28;20247;-83
2022/05/24 05:24:51;;;;;;;12.20;7.30;;;;;;;15.46;100.00;97839.84;5044772;28;20280;-82
2022/05/24 05:27:19;;;;;;;8.60;7.23;;;;;;;15.53;100.00;97848.03;5050101;28;20640;-83
2022/05/24 05:32:35;;;;;;;8.13;6.77;;;;;;;15.57;100.00;97852.06;5054085;28;20216;-82
2022/05/24 05:35:05;;;;;;;9.37;7.53;;;;;;;15.56;100.00;97844.22;5047055;28;20220;-82
2022/05/24 05:37:34;;;;;;;9.97;7.50;;;;;;;15.59;100.00;97849.22;5046324;28;20204;-83
2022/05/24 05:40:05;;;;;;;9.37;8.03;;;;;;;15.35;100.00;97856.16;5046580;28;20224;-83
2022/05/24 05:42:34;;;;;;;9.63;8.40;;;;;;;15.38;100.00;97863.84;5053680;28;20197;-83
2022/05/24 05:45:03;;;;;;;10.03;8.77;;;;;;;15.37;100.00;97872.00;5048531;28;20200;-83
2022/05/24 05:47:34;;;;;;;10.90;8.70;;;;;;;15.24;100.00;97879.59;5053744;28;20271;-83
2022/05/24 05:50:04;;;;;;;11.63;9.20;;;;;;;15.20;100.00;97886.25;5050513;28;20201;-83
2022/05/24 05:52:32;;;;;;;12.33;9.10;;;;;;;15.09;100.00;97888.19;5039862;28;20300;-83
2022/05/24 05:55:01;;;;;;;12.33;9.30;;;;;;;14.98;100.00;97899.13;5049478;28;20227;-82
2022/05/24 05:57:29;;;;;;;12.43;9.97;;;;;;;14.94;100.00;97910.25;5050840;28;20354;-83
2022/05/24 05:59:57;;;;;;;12.30;10.43;;;;;;;14.78;100.00;97911.00;5048784;28;20196;-83
2022/05/24 06:02:26;;;;;;;15.43;11.70;;;;;;;15.03;100.00;97923.47;5043579;28;20197;-82
2022/05/24 06:04:54;;;;;;;13.90;11.40;;;;;;;15.16;100.00;97931.91;5050276;28;20200;-82
2022/05/24 06:07:24;;;;;;;12.40;11.20;;;;;;;15.32;100.00;97936.50;5049800;28;20209;-82
2022/05/24 06:09:53;;;;;;;11.87;10.67;;;;;;;15.27;100.00;97936.16;5046011;28;20201;-83
2022/05/24 06:12:21;;;;;;;10.40;9.30;;;;;;;15.21;100.00;97933.25;5046461;28;20207;-83
2022/05/24 06:14:49;;;;;;;11.10;9.47;;;;;;;15.01;100.00;97944.13;5045566;28;20228;-83
2022/05/24 06:17:25;;;;;;;9.60;7.87;;;;;;;14.81;100.00;97959.50;5049261;28;20702;-83
2022/05/24 06:19:54;;;;;;;5.77;5.17;;;;;;;14.35;100.00;97984.50;5053616;28;20204;-85
2022/05/24 06:22:22;;;;;;;6.43;3.67;;;;;;;14.19;100.00;97966.53;5047272;28;20208;-89
2022/05/24 06:24:51;;;;;;;5.20;3.13;;;;;;;14.01;100.00;97979.00;5055082;28;20197;-93
2022/05/24 06:27:21;;;;;;;3.07;1.90;;;;;;;13.89;100.00;97967.69;5056085;28;20209;-88
2022/05/24 06:29:50;;;;;;;2.17;1.73;;;;;;;13.78;100.00;97951.06;5051422;28;20249;-89
2022/05/24 06:32:19;;;;;;;3.70;1.70;;;;;;;13.86;100.00;97946.69;5052017;28;20201;-87
2022/05/24 06:34:48;;;;;;;4.10;1.90;;;;;;;13.83;100.00;97957.66;5054528;28;20217;-88
2022/05/24 06:37:18;;;;;;;2.07;1.70;;;;;;;13.77;100.00;97955.56;5051393;28;20193;-86
2022/05/24 06:39:46;;;;;;;3.63;2.03;;;;;;;13.80;100.00;97951.75;5052212;28;20200;-86
2022/05/24 06:42:16;;;;;;;3.00;1.70;;;;;;;13.92;100.00;97937.28;5048264;28;20193;-85
2022/05/24 06:44:45;;;;;;;2.90;1.60;;;;;;;13.95;100.00;97936.97;5051727;28;20708;-85
2022/05/24 06:47:14;;;;;;;2.70;1.63;;;;;;;14.11;100.00;97944.31;5057123;28;20203;-85
2022/05/24 06:49:48;;;;;;;7.43;2.00;;;;;;;14.39;100.00;97953.09;5054887;28;20192;-86
2022/05/24 06:52:17;;;;;;;3.10;1.80;;;;;;;14.65;100.00;97962.00;5053378;28;20200;-85
2022/05/24 06:54:45;;;;;;;3.20;2.23;;;;;;;14.60;100.00;97973.13;5050620;28;20188;-85
2022/05/24 06:57:17;;;;;;;2.80;1.93;;;;;;;14.46;100.00;97975.47;5057465;28;20250;-85
2022/05/24 07:02:31;;;;;;;2.73;1.83;;;;;;;14.46;100.00;98004.78;5056860;28;20189;-85
2022/05/24 07:05:00;;;;;;;3.53;1.70;;;;;;;14.28;100.00;98000.28;5049027;28;20205;-84
2022/05/24 07:07:30;;;;;;;1.93;1.73;;;;;;;14.25;100.00;98003.22;5057163;28;20201;-84
2022/05/24 07:09:58;;;;;;;1.53;1.20;;;;;;;14.09;100.00;97995.06;5057127;28;20200;-85
2022/05/24 07:12:28;;;;;;;1.80;1.00;;;;;;;14.05;100.00;97972.38;5053763;28;20648;-84
2022/05/24 07:14:58;;;;;;;1.30;1.10;;;;;;;13.99;100.00;97959.63;5047603;28;20215;-85
2022/05/24 07:17:28;;;;;;;3.07;0.90;;;;;;;14.07;100.00;97951.75;5050157;28;20197;-83
2022/05/24 07:19:56;;;;;;;0.97;0.80;;;;;;;14.06;100.00;97951.91;5052633;28;20208;-84
2022/05/24 07:22:24;;;;;;;1.13;0.90;;;;;;;14.13;100.00;97966.31;5051026;28;20203;-84
2022/05/24 07:24:54;;;;;;;0.90;0.80;;;;;;;14.12;100.00;97986.75;5053594;28;20189;-84
2022/05/24 07:27:23;;;;;;;1.13;0.90;;;;;;;14.16;100.00;97996.13;5056319;28;20649;-84
2022/05/24 07:29:53;;;;;;;1.00;0.90;;;;;;;14.29;100.00;98011.75;5056288;28;20225;-84
2022/05/24 07:32:21;;;;;;;2.00;0.80;;;;;;;14.25;100.00;98018.34;5056234;28;20201;-84
2022/05/24 07:34:49;;;;;;;1.93;1.10;;;;;;;14.23;100.00;98031.00;5044425;28;20196;-83
2022/05/24 07:37:21;;;;;;;1.30;1.00;;;;;;;14.35;100.00;98028.94;5048162;28;20236;-84
2022/05/24 07:45:47;;;;;;;1.17;1.00;;;;;;;14.39;100.00;98028.53;5050914;28;20268;-84
2022/05/24 07:48:10;;;;;;;1.73;1.20;;;;;;;14.52;100.00;98047.66;5052086;28;20212;-85
2022/05/24 07:50:39;;;;;;;2.17;1.00;;;;;;;14.72;100.00;98052.84;5016034;28;20199;-84
2022/05/24 07:53:08;;;;;;;1.50;1.10;;;;;;;14.80;100.00;98044.94;5052449;28;20196;-84
2022/05/24 07:55:37;;;;;;;2.10;1.17;;;;;;;14.96;100.00;98055.78;5050462;28;20703;-85
2022/05/24 07:58:06;;;;;;;2.70;1.20;;;;;;;15.11;100.00;98056.88;5051820;28;20217;-85
2022/05/24 08:00:36;;;;;;;5.47;1.30;;;;;;;14.88;100.00;98055.69;5049147;28;20193;-84
2022/05/24 08:03:07;;;;;;;1.70;1.07;;;;;;;14.98;100.00;98035.13;5049130;28;20308;-84
2022/05/24 08:05:37;;;;;;;1.80;1.13;;;;;;;14.80;100.00;98051.13;5057793;28;20263;-83
2022/05/24 08:08:07;;;;;;;5.20;1.30;;;;;;;14.88;100.00;98051.19;5056472;28;20294;-84
2022/05/24 08:10:38;;;;;;;2.30;1.13;;;;;;;14.88;100.00;98063.69;5055867;28;20193;-82
2022/05/24 08:13:08;;;;;;;2.67;1.33;;;;;;;14.91;100.00;98074.03;5052172;28;20276;-82
2022/05/24 08:15:39;;;;;;;1.70;0.90;;;;;;;14.80;100.00;98085.78;5051893;28;20281;-83
2022/05/24 08:18:07;;;;;;;1.33;0.90;;;;;;;14.31;100.00;98097.69;5051600;28;20235;-83
2022/05/24 08:20:37;;;;;;;1.30;1.10;;;;;;;14.24;100.00;98092.09;5055201;28;20197;-84
2022/05/24 08:23:06;;;;;;;0.97;0.87;;;;;;;14.13;100.00;98108.25;5055663;28;20248;-83
2022/05/24 08:25:39;;;;;;;2.50;1.10;;;;;;;14.42;100.00;98126.78;5051099;28;20197;-83
2022/05/24 08:28:08;;;;;;;1.80;0.80;;;;;;;14.64;100.00;98114.06;5050714;28;20208;-83
2022/05/24 08:30:40;;;;;;;1.63;0.87;;;;;;;14.57;100.00;98113.81;5052161;28;20193;-84
2022/05/24 08:33:11;;;;;;;1.90;1.07;;;;;;;14.17;100.00;98112.31;5054747;28;20652;-83
2022/05/24 08:35:40;;;;;;;1.07;0.80;;;;;;;14.52;100.00;98129.44;5049022;28;20209;-84
2022/05/24 08:38:09;;;;;;;1.03;0.80;;;;;;;14.50;100.00;98120.75;5050399;28;20205;-84
2022/05/24 08:40:39;;;;;;;2.73;1.07;;;;;;;14.01;100.00;98118.28;5054935;28;20200;-85
2022/05/24 08:43:21;;;;;;;1.60;1.23;;;;;;;14.33;100.00;98128.50;5052063;28;20204;-84
2022/05/24 08:48:44;;;;;;;1.63;0.90;;;;;;;14.23;100.00;98130.38;5049538;28;20645;-84
2022/05/24 08:51:23;;;;;;;1.57;0.90;;;;;;;14.23;100.00;98134.84;5050488;28;20199;-84
2022/05/24 08:53:55;;;;;;;1.33;1.00;;;;;;;14.58;100.00;98142.16;5053422;28;20648;-84
2022/05/24 08:56:27;;;;;;;1.83;1.00;;;;;;;14.96;100.00;98132.22;5048829;28;20240;-83
2022/05/24 08:59:01;;;;;;;1.40;1.10;;;;;;;14.81;100.00;98132.75;5049854;28;20193;-84
2022/05/24 09:01:33;;;;;;;1.33;0.90;;;;;;;15.18;100.00;98137.97;5046994;28;20211;-84
2022/05/24 09:04:03;;;;;;;1.50;1.00;;;;;;;15.48;100.00;98135.91;5051926;28;20204;-84
2022/05/24 09:06:44;;;;;;;1.10;1.00;;;;;;;15.53;100.00;98132.75;5050220;28;20192;-84
2022/05/24 09:09:25;;;;;;;2.93;1.10;;;;;;;16.01;100.00;98133.13;5054265;28;20200;-84
2022/05/24 09:12:11;;;;;;;2.97;1.10;;;;;;;16.02;100.00;98134.00;5052197;28;20216;-84
2022/05/24 09:14:51;;;;;;;1.30;1.13;;;;;;;16.50;100.00;98132.53;5052771;28;20216;-84
2022/05/24 09:17:34;;;;;;;2.27;1.10;;;;;;;16.38;100.00;98139.19;5046517;28;20221;-83
2022/05/24 09:20:11;;;;;;;1.67;0.93;;;;;;;16.36;100.00;98128.66;5052896;28;20201;-84
2022/05/24 09:22:40;;;;;;;2.53;0.90;;;;;;;16.12;100.00;98141.91;5049619;28;20270;-85
2022/05/24 09:25:10;;;;;;;2.83;1.00;;;;;;;16.15;100.00;98139.75;5046499;28;20480;-84
2022/05/24 09:27:51;;;;;;;1.47;0.97;;;;;;;16.04;100.00;98137.34;5040640;28;20205;-83
2022/05/24 09:30:27;;;;;;;0.73;0.73;;;;;;;16.47;100.00;98120.34;5047464;28;20271;-83
2022/05/24 09:33:24;;;;;;;1.70;0.70;;;;;;;16.86;100.00;98126.03;5047514;28;20670;-84
2022/05/24 09:35:58;;;;;;;2.77;0.90;;;;;;;16.86;100.00;98119.84;5046034;28;20284;-84
2022/05/24 09:38:34;;;;;;;1.00;0.80;;;;;;;16.76;100.00;98111.13;5040853;28;20220;-84
2022/05/24 09:41:15;;;;;;;1.60;0.70;;;;;;;16.92;100.00;98121.03;5052319;28;20211;-85
2022/05/24 09:43:43;;;;;;;3.23;0.80;;;;;;;17.05;100.00;98116.03;5050235;28;20200;-83
2022/05/24 09:46:17;;;;;;;1.73;0.73;;;;;;;16.55;100.00;98133.75;5045407;28;20280;-86
2022/05/24 09:48:56;;;;;;;1.90;0.80;;;;;;;16.54;100.00;98121.38;5045907;28;20184;-84
2022/05/24 09:51:28;;;;;;;1.97;0.70;;;;;;;16.38;100.00;98148.03;5046078;28;20276;-84
2022/05/24 09:53:57;;;;;;;1.77;0.70;;;;;;;16.42;100.00;98160.09;5052324;28;20197;-83
2022/05/24 09:56:29;;;;;;;4.20;0.90;;;;;;;15.79;100.00;98178.22;5052518;28;20276;-85
2022/05/24 09:59:01;;;;;;;2.03;0.80;;;;;;;14.70;100.00;98196.09;5049331;28;20224;-85
2022/05/24 10:01:35;;;;;;;2.60;0.80;;;;;;;14.72;100.00;98200.28;5052790;28;20197;-84
2022/05/24 10:04:17;;;;;;;2.57;1.00;;;;;;;14.97;100.00;98217.44;5052387;28;20211;-84
2022/05/24 10:06:55;;;;;;;1.63;1.00;;;;;;;14.92;100.00;98216.19;5051345;28;20612;-85
2022/05/24 10:09:50;;;;;;;1.57;1.00;;;;;;;15.00;100.00;98230.47;4987857;28;20203;-85
2022/05/24 10:12:47;;;;;;;1.50;1.00;;;;;;;15.16;100.00;98244.00;4986570;28;20290;-85
2022/05/24 10:15:31;;;;;;;1.80;1.00;;;;;;;15.14;100.00;98243.28;4957161;28;20206;-84
2022/05/24 10:18:15;;;;;;;2.30;0.90;;;;;;;14.89;100.00;98255.50;4991017;28;20626;-85
2022/05/24 10:20:54;;;;;;;1.10;0.90;;;;;;;14.72;100.00;98268.75;4982977;28;20278;-85
2022/05/24 10:23:38;;;;;;;1.87;1.00;;;;;;;14.70;100.00;98255.59;4988458;28;20202;-85
2022/05/24 10:26:17;;;;;;;1.53;1.00;;;;;;;15.01;100.00;98255.31;4987225;28;20210;-85
2022/05/24 10:30:58;;;;;;;2.33;1.40;;;;;;;15.52;100.00;98252.03;5111679;27;20541;-84
2022/05/24 10:39:26;;;;;;;1.97;1.00;;;;;;;15.90;100.00;98240.22;5111024;28;20195;-84
2022/05/24 10:42:03;;;;;;;2.83;1.00;;;;;;;16.33;100.00;98246.56;5113941;28;20282;-85
2022/05/24 10:44:40;;;;;;;1.10;1.00;;;;;;;16.89;100.00;98237.22;5114966;27;20198;-83
2022/05/24 10:47:22;;;;;;;1.73;1.10;;;;;;;16.74;100.00;98236.97;5106464;28;20197;-83
2022/05/24 10:49:56;;;;;;;3.53;1.30;;;;;;;16.20;100.00;98230.09;5108990;28;20215;-83
2022/05/24 10:52:34;;;;;;;3.07;1.20;;;;;;;16.63;100.00;98231.03;5110594;28;20268;-82
2022/05/24 10:55:12;;;;;;;2.63;1.00;;;;;;;16.98;100.00;98220.19;5088183;28;20191;-83
2022/05/24 10:57:48;;;;;;;2.07;1.10;;;;;;;17.00;100.00;98225.41;5084144;28;20204;-83
2022/05/24 11:00:19;;;;;;;1.23;0.97;;;;;;;17.03;100.00;98222.38;5088022;28;20203;-84
2022/05/24 11:02:53;;;;;;;1.73;1.00;;;;;;;16.84;100.00;98221.63;5082914;28;20206;-83
2022/05/24 11:05:27;;;;;;;2.27;1.10;;;;;;;17.52;100.00;98217.97;5082709;28;20385;-84
2022/05/24 11:08:02;;;;;;;1.77;0.80;;;;;;;17.14;100.00;98216.72;5086726;28;20192;-85
2022/05/24 11:10:34;;;;;;;1.97;1.00;;;;;;;17.44;100.00;98229.50;5079857;28;20219;-83
2022/05/24 11:13:09;;;;;;;1.90;0.87;;;;;;;17.74;100.00;98220.03;5095609;28;20205;-82
2022/05/24 11:15:40;;;;;;;1.53;1.00;;;;;;;18.35;100.00;98217.00;5111890;28;20195;-83
2022/05/24 11:18:15;;;;;;;2.67;1.03;;;;;;;18.40;100.00;98215.47;5114244;27;20191;-82
2022/05/24 11:20:49;;;;;;;1.40;0.90;;;;;;;18.74;100.00;98201.00;5111372;27;20201;-83
2022/05/24 11:23:22;;;;;;;3.00;0.90;;;;;;;18.35;100.00;98206.28;5109876;28;20227;-82
2022/05/24 11:25:56;;;;;;;1.67;1.00;;;;;;;18.76;100.00;98205.19;5107101;28;20715;-83
2022/05/24 11:28:28;;;;;;;1.30;0.80;;;;;;;18.52;100.00;98216.78;5110167;28;20274;-83
2022/05/24 11:31:28;;;;;;;1.73;0.93;;;;;;;18.27;100.00;98218.69;5062774;28;20216;-83
2022/05/24 11:34:03;;;;;;;2.20;0.80;;;;;;;18.32;100.00;98215.47;5027360;28;20206;-82
2022/05/24 11:36:42;;;;;;;1.70;0.97;;;;;;;18.22;100.00;98214.81;5026254;28;20198;-88
2022/05/24 11:39:24;;;;;;;1.97;0.97;;;;;;;18.56;100.00;98218.13;5024971;28;20645;-83
2022/05/24 11:42:40;;;;;;;1.17;0.90;;;;;;;18.59;100.00;98222.28;5014095;28;20190;-84
2022/05/24 11:45:48;;;;;;;2.03;0.80;;;;;;;19.00;100.00;98220.31;5011730;28;20205;-84
2022/05/24 11:48:18;;;;;;;3.13;1.00;;;;;;;19.19;100.00;98202.13;5022798;28;20200;-83
2022/05/24 11:50:50;;;;;;;1.27;0.93;;;;;;;19.24;100.00;98208.66;5071978;28;20220;-83
2022/05/24 11:53:37;;;;;;;2.17;0.90;;;;;;;19.23;100.00;98208.81;5071537;28;20189;-83
2022/05/24 11:56:19;;;;;;;2.83;0.80;;;;;;;19.19;100.00;98216.38;5073017;28;20192;-83
2022/05/24 11:58:53;;;;;;;1.67;0.70;;;;;;;19.66;100.00;98212.75;5090664;28;20195;-83
2022/05/24 12:01:49;;;;;;;1.37;0.80;;;;;;;19.76;100.00;98216.03;5099246;28;20195;-83
2022/05/24 12:10:51;;;;;;;1.07;0.80;;;;;;;19.35;100.00;98223.50;5094404;28;20254;-83
2022/05/24 12:13:51;;;;;;;2.77;0.97;;;;;;;18.45;100.00;98221.16;5095504;28;20199;-82
2022/05/24 12:16:51;;;;;;;3.60;0.80;;;;;;;18.88;100.00;98227.94;5094311;28;20651;-84
2022/05/24 12:19:51;;;;;;;1.63;0.80;;;;;;;17.69;100.00;98245.63;5084996;28;20215;-83
2022/05/24 12:22:22;;;;;;;1.63;0.80;;;;;;;18.07;100.00;98251.38;5097219;28;20211;-83
2022/05/24 12:24:57;;;;;;;0.70;0.50;;;;;;;17.81;100.00;98255.03;5096343;28;20207;-84
2022/05/24 12:27:43;;;;;;;0.77;0.40;;;;;;;18.29;100.00;98251.53;5095708;28;20188;-83
2022/05/24 12:33:34;;;;;;;1.00;0.60;;;;;;;19.26;100.00;98251.44;5093756;28;20222;-82